Time;durP1;ratioP1;P1;durP2;ratioP2;P2;SDS_P1;SDS_P2;PMS_P1;PMS_P2;Temp;Humidity;BMP_temperature;BMP_pressure;BME280_temperature;BME280_humidity;BME280_pressure;Samples;Min_cycle;Max_cycle;Signal;HPM_P1;HPM_P2
2023/10/10 00:01:17;;;;;;;6.20;4.18;;;20.40;72.20;;;;;;5029312;28;20029;-76
2023/10/10 00:03:45;;;;;;;5.70;4.55;;;20.40;72.20;;;;;;5047637;28;20041;-76
2023/10/10 00:06:14;;;;;;;6.10;4.55;;;20.40;72.20;;;;;;5041536;28;20029;-75
2023/10/10 00:08:41;;;;;;;6.15;4.28;;;20.40;72.20;;;;;;5053737;28;20029;-76
2023/10/10 00:11:14;;;;;;;6.03;4.47;;;20.40;72.20;;;;;;5009655;28;20093;-75
2023/10/10 00:13:46;;;;;;;5.90;4.25;;;20.40;72.30;;;;;;5045380;28;20032;-76
2023/10/10 00:19:11;;;;;;;5.75;4.10;;;20.30;72.20;;;;;;5034531;28;20099;-76
2023/10/10 00:21:38;;;;;;;5.15;4.28;;;20.30;72.20;;;;;;5022418;28;20125;-76
2023/10/10 00:24:04;;;;;;;5.65;4.47;;;20.30;72.20;;;;;;5039190;28;20500;-75
2023/10/10 00:26:30;;;;;;;6.05;4.28;;;20.30;72.20;;;;;;5029239;28;20091;-76
2023/10/10 00:28:57;;;;;;;5.68;4.40;;;20.30;72.20;;;;;;5033675;28;20037;-75
2023/10/10 00:31:28;;;;;;;5.80;4.20;;;20.30;72.20;;;;;;5050189;28;20120;-76
2023/10/10 00:33:55;;;;;;;6.30;4.57;;;20.30;72.30;;;;;;5039224;28;20065;-76
2023/10/10 00:36:22;;;;;;;6.30;4.70;;;20.30;72.30;;;;;;5052782;28;20466;-75
2023/10/10 00:41:52;;;;;;;6.57;4.38;;;20.30;72.30;;;;;;5028609;28;20147;-75
2023/10/10 00:44:18;;;;;;;6.47;4.85;;;20.20;72.20;;;;;;5019279;28;20122;-76
2023/10/10 00:46:51;;;;;;;6.97;4.68;;;20.20;72.30;;;;;;5036456;28;20098;-76
2023/10/10 00:49:23;;;;;;;7.00;5.18;;;20.20;72.30;;;;;;5031271;28;20082;-77
2023/10/10 00:51:53;;;;;;;5.85;4.53;;;20.20;72.30;;;;;;5001508;28;20060;-77
2023/10/10 00:56:54;;;;;;;5.75;4.72;;;20.20;72.30;;;;;;5035384;28;20393;-75
2023/10/10 00:59:35;;;;;;;6.38;4.75;;;20.10;72.30;;;;;;5048187;28;20037;-76
2023/10/10 01:02:04;;;;;;;6.47;4.60;;;20.10;72.40;;;;;;5034817;28;20029;-76
2023/10/10 01:04:48;;;;;;;5.50;4.47;;;20.10;72.40;;;;;;5039819;28;20044;-76
2023/10/10 01:07:18;;;;;;;6.20;4.70;;;20.10;72.40;;;;;;5021117;28;20502;-76
2023/10/10 01:12:35;;;;;;;5.60;4.45;;;20.10;72.40;;;;;;5044333;28;20057;-75
2023/10/10 01:15:08;;;;;;;6.25;4.88;;;20.10;72.40;;;;;;5030591;28;20044;-76
2023/10/10 01:17:34;;;;;;;5.85;4.38;;;20.00;72.30;;;;;;5033587;28;20038;-76
2023/10/10 01:20:13;;;;;;;5.68;4.28;;;20.00;72.30;;;;;;5031418;28;20029;-75
2023/10/10 01:22:40;;;;;;;6.03;4.63;;;20.00;72.40;;;;;;5022133;28;20025;-77
2023/10/10 01:25:31;;;;;;;6.45;4.55;;;20.00;72.30;;;;;;5026976;28;20033;-76
2023/10/10 01:27:55;;;;;;;5.88;4.65;;;20.00;72.40;;;;;;5038505;28;20033;-76
2023/10/10 01:30:43;;;;;;;6.78;4.88;;;20.00;72.40;;;;;;5036010;28;20029;-75
2023/10/10 01:33:07;;;;;;;6.38;4.53;;;20.00;72.40;;;;;;5052793;28;20048;-76
2023/10/10 01:35:34;;;;;;;5.70;4.68;;;20.00;72.40;;;;;;5032658;28;20025;-76
2023/10/10 01:37:59;;;;;;;7.57;5.35;;;19.90;72.40;;;;;;5032563;28;20029;-76
2023/10/10 01:40:28;;;;;;;7.35;5.25;;;19.90;72.40;;;;;;5042774;28;20039;-76
2023/10/10 01:42:54;;;;;;;6.05;4.97;;;19.90;72.40;;;;;;5045754;28;20029;-76
2023/10/10 01:45:21;;;;;;;6.45;5.20;;;19.90;72.40;;;;;;5032007;28;20121;-75
2023/10/10 01:47:57;;;;;;;6.53;5.00;;;19.80;72.30;;;;;;5019812;28;20120;-75
2023/10/10 01:50:26;;;;;;;6.88;5.10;;;19.90;72.40;;;;;;5029750;28;20109;-76
2023/10/10 01:52:55;;;;;;;7.35;5.47;;;19.80;72.40;;;;;;5038698;28;20474;-76
2023/10/10 01:55:24;;;;;;;7.00;5.13;;;19.80;72.40;;;;;;5042317;28;20052;-76
2023/10/10 01:57:50;;;;;;;6.93;5.40;;;19.80;72.50;;;;;;5045634;28;20043;-76
2023/10/10 02:00:21;;;;;;;7.45;5.82;;;19.80;72.50;;;;;;5051922;28;20474;-76
2023/10/10 02:02:52;;;;;;;6.82;5.43;;;19.80;72.50;;;;;;5021830;28;20038;-75
2023/10/10 02:05:32;;;;;;;6.63;5.30;;;19.80;72.50;;;;;;5043615;28;20515;-76
2023/10/10 02:07:59;;;;;;;6.55;5.07;;;19.70;72.50;;;;;;5032697;28;20039;-76
2023/10/10 02:10:30;;;;;;;6.88;5.57;;;19.70;72.50;;;;;;5051533;28;20029;-76
2023/10/10 02:12:59;;;;;;;6.53;5.10;;;19.70;72.50;;;;;;5045650;28;20027;-75
2023/10/10 02:15:32;;;;;;;6.80;5.45;;;19.70;72.50;;;;;;5039570;28;20021;-76
2023/10/10 02:18:04;;;;;;;6.60;5.13;;;19.70;72.50;;;;;;5051485;28;20033;-75
2023/10/10 02:20:49;;;;;;;7.90;6.00;;;19.60;72.50;;;;;;5024600;28;20021;-76
2023/10/10 02:23:33;;;;;;;5.90;4.93;;;19.60;72.50;;;;;;5038078;28;20470;-75
2023/10/10 02:28:49;;;;;;;6.97;5.18;;;19.60;72.50;;;;;;5049108;28;20106;-77
2023/10/10 02:31:19;;;;;;;6.25;5.22;;;19.60;72.50;;;;;;5030850;28;20029;-76
2023/10/10 02:33:48;;;;;;;6.50;5.53;;;19.60;72.60;;;;;;5029195;28;20041;-76
2023/10/10 02:36:30;;;;;;;6.80;5.68;;;19.50;72.50;;;;;;5034345;28;20025;-75
2023/10/10 02:39:10;;;;;;;7.18;5.72;;;19.60;72.60;;;;;;5024877;28;20053;-76
2023/10/10 02:41:38;;;;;;;6.20;5.18;;;19.50;72.50;;;;;;5026550;28;20120;-75
2023/10/10 02:44:09;;;;;;;7.63;6.07;;;19.50;72.50;;;;;;5018444;28;20125;-75
2023/10/10 02:46:39;;;;;;;7.28;5.82;;;19.50;72.60;;;;;;5030572;28;20373;-76
2023/10/10 02:51:55;;;;;;;7.00;5.43;;;19.50;72.60;;;;;;5033200;28;20104;-76
2023/10/10 02:54:34;;;;;;;7.38;6.05;;;19.40;72.60;;;;;;5018758;28;20064;-77
2023/10/10 02:57:53;;;;;;;7.25;5.82;;;19.40;72.60;;;;;;5016611;28;20043;-76
2023/10/10 02:59:59;;;;;;;6.65;5.57;;;19.40;72.60;;;;;;5033836;28;20052;-75
2023/10/10 03:02:29;;;;;;;7.38;5.85;;;19.40;72.60;;;;;;5042065;28;20397;-76
2023/10/10 03:07:30;;;;;;;7.03;5.20;;;19.40;72.60;;;;;;5024516;28;20076;-75
2023/10/10 03:12:38;;;;;;;7.45;5.10;;;19.30;72.60;;;;;;5037258;28;20044;-76
2023/10/10 03:15:27;;;;;;;6.70;5.15;;;19.30;72.60;;;;;;5019592;28;20037;-76
2023/10/10 03:25:47;;;;;;;7.22;6.10;;;19.20;72.60;;;;;;5044063;28;20099;-76
2023/10/10 03:31:04;;;;;;;7.43;6.30;;;19.20;73.40;;;;;;5035126;28;20380;-76
2023/10/10 03:33:44;;;;;;;7.85;5.93;;;19.20;72.70;;;;;;5046206;28;20045;-76
2023/10/10 05:25:23;;;;;;;8.73;7.25;;;18.70;73.70;;;;;;5015749;28;20037;-75
2023/10/10 05:27:56;;;;;;;10.05;7.63;;;18.70;73.70;;;;;;5046756;28;20040;-75
2023/10/10 05:30:25;;;;;;;10.20;8.32;;;18.70;73.80;;;;;;5033133;28;20057;-76
2023/10/10 05:33:02;;;;;;;10.40;8.35;;;18.60;74.40;;;;;;5034851;28;20488;-75
2023/10/10 05:35:28;;;;;;;9.90;8.02;;;18.60;73.80;;;;;;5030808;28;20034;-75
2023/10/10 05:37:54;;;;;;;9.95;7.95;;;18.70;73.80;;;;;;5029592;28;20048;-75
2023/10/10 05:40:20;;;;;;;9.65;7.78;;;18.70;73.90;;;;;;5036254;28;20034;-75
2023/10/10 05:42:46;;;;;;;10.10;7.97;;;18.70;73.90;;;;;;5030505;28;20034;-76
2023/10/10 05:45:13;;;;;;;9.68;8.40;;;18.70;73.90;;;;;;5029627;28;20428;-75
2023/10/10 05:47:40;;;;;;;9.73;8.25;;;18.70;73.90;;;;;;5048930;28;20021;-75
2023/10/10 05:50:10;;;;;;;9.05;7.18;;;18.70;73.90;;;;;;5043142;28;20040;-76
2023/10/10 05:52:39;;;;;;;9.35;7.72;;;18.70;73.90;;;;;;5051378;28;20061;-75
2023/10/10 05:55:10;;;;;;;10.00;7.78;;;18.70;73.90;;;;;;5034909;28;20115;-75
2023/10/10 05:57:37;;;;;;;9.85;8.10;;;18.70;73.90;;;;;;5041642;28;20501;-75
2023/10/10 06:00:10;;;;;;;9.75;7.88;;;18.70;73.90;;;;;;5008320;28;20033;-75
2023/10/10 06:02:45;;;;;;;9.68;7.43;;;18.70;74.00;;;;;;5052037;28;20272;-75
2023/10/10 06:05:16;;;;;;;9.30;7.57;;;18.60;73.80;;;;;;5051739;28;20032;-75
2023/10/10 06:07:42;;;;;;;10.05;8.00;;;18.60;73.80;;;;;;5052045;28;20033;-76
2023/10/10 06:10:16;;;;;;;10.10;8.00;;;18.70;73.90;;;;;;5031288;28;20027;-75
2023/10/10 06:12:47;;;;;;;10.15;7.95;;;18.60;73.80;;;;;;5027452;28;20386;-75
2023/10/10 06:15:16;;;;;;;10.38;8.23;;;18.70;74.00;;;;;;5015670;28;20060;-75
2023/10/10 06:17:43;;;;;;;9.77;7.90;;;18.60;73.90;;;;;;5033269;28;20453;-75
2023/10/10 06:20:43;;;;;;;10.32;8.32;;;18.60;73.90;;;;;;5021327;28;20442;-75
2023/10/10 06:23:02;;;;;;;9.05;7.57;;;18.60;73.90;;;;;;5037259;28;20037;-76
2023/10/10 06:25:29;;;;;;;10.13;8.18;;;18.70;74.00;;;;;;5020689;28;20029;-75
2023/10/10 06:27:54;;;;;;;10.35;8.45;;;18.60;73.90;;;;;;5043929;28;20049;-75
2023/10/10 06:30:21;;;;;;;11.55;8.73;;;18.60;73.90;;;;;;5023735;28;20029;-75
2023/10/10 06:32:47;;;;;;;10.40;8.65;;;18.60;73.90;;;;;;5030742;28;20036;-76
2023/10/10 06:37:51;;;;;;;10.45;8.27;;;18.60;73.90;;;;;;5037782;28;20025;-75
2023/10/10 06:40:30;;;;;;;10.90;8.65;;;18.60;73.90;;;;;;5039166;28;20040;-75
2023/10/10 06:42:56;;;;;;;9.75;7.97;;;18.60;73.90;;;;;;5046350;28;20083;-75
2023/10/10 06:45:34;;;;;;;10.18;8.20;;;18.60;73.90;;;;;;5019173;28;20147;-76
2023/10/10 06:48:01;;;;;;;11.10;8.77;;;18.60;74.00;;;;;;5038957;28;20090;-75
2023/10/10 06:50:31;;;;;;;9.82;8.07;;;18.60;73.90;;;;;;5033011;28;20026;-75
2023/10/10 06:53:00;;;;;;;11.50;9.07;;;18.60;73.90;;;;;;5014953;28;20038;-76
2023/10/10 06:55:36;;;;;;;11.93;9.10;;;18.60;73.90;;;;;;5039005;28;20045;-76
2023/10/10 06:58:06;;;;;;;11.07;9.25;;;18.50;73.90;;;;;;5038345;28;20252;-75
2023/10/10 07:00:45;;;;;;;11.38;8.98;;;18.60;74.00;;;;;;5029266;28;20029;-77
2023/10/10 07:03:18;;;;;;;11.82;9.13;;;18.50;74.00;;;;;;5047280;28;20362;-80
2023/10/10 07:05:48;;;;;;;11.65;9.55;;;18.50;73.90;;;;;;5034553;28;20032;-75
2023/10/10 07:08:19;;;;;;;11.02;8.77;;;18.60;74.10;;;;;;5050711;28;20029;-75
2023/10/10 07:10:45;;;;;;;11.15;9.18;;;18.50;74.00;;;;;;5011339;28;20383;-75
2023/10/10 07:13:18;;;;;;;12.50;10.00;;;18.50;74.00;;;;;;5057500;28;20025;-76
2023/10/10 07:15:51;;;;;;;11.50;9.30;;;18.50;74.00;;;;;;5040055;28;20044;-76
2023/10/10 07:18:23;;;;;;;11.30;9.18;;;18.50;74.00;;;;;;5030146;28;20029;-76
2023/10/10 07:21:08;;;;;;;11.77;9.30;;;18.50;74.00;;;;;;5032213;28;20502;-75
2023/10/10 07:23:38;;;;;;;10.75;8.40;;;18.60;74.10;;;;;;5030729;28;20033;-75
2023/10/10 07:26:21;;;;;;;11.75;8.77;;;18.50;74.00;;;;;;5035002;28;20052;-75
2023/10/10 07:28:52;;;;;;;11.98;8.82;;;18.50;74.10;;;;;;5030519;28;20605;-75
2023/10/10 07:31:23;;;;;;;10.27;8.32;;;18.50;74.70;;;;;;5013919;28;20128;-75
2023/10/10 07:34:03;;;;;;;12.23;10.20;;;18.50;74.00;;;;;;5032288;28;20056;-75
2023/10/10 07:36:31;;;;;;;11.30;8.98;;;18.60;74.00;;;;;;5030685;28;20041;-75
2023/10/10 07:41:45;;;;;;;11.18;8.82;;;18.60;74.00;;;;;;5029195;28;20068;-76
2023/10/10 07:44:11;;;;;;;10.68;8.38;;;18.60;74.00;;;;;;5030437;28;20042;-76
2023/10/10 07:46:37;;;;;;;10.73;8.35;;;18.60;74.10;;;;;;5030168;28;20037;-76
2023/10/10 07:49:03;;;;;;;11.95;9.35;;;18.60;74.10;;;;;;5030593;28;20390;-78
2023/10/10 07:51:29;;;;;;;11.73;9.10;;;18.60;74.10;;;;;;5012182;28;20083;-76
2023/10/10 07:54:28;;;;;;;10.15;8.35;;;18.60;74.10;;;;;;5027898;28;20049;-77
2023/10/10 07:56:55;;;;;;;10.48;8.63;;;18.60;74.00;;;;;;5031879;28;20033;-76
2023/10/10 07:59:21;;;;;;;10.45;8.00;;;18.70;74.00;;;;;;5033439;28;20112;-75
2023/10/10 08:01:48;;;;;;;9.82;8.35;;;18.60;74.00;;;;;;5034405;28;20073;-76
2023/10/10 08:04:14;;;;;;;10.38;8.52;;;18.70;74.10;;;;;;5034159;28;20032;-76
2023/10/10 08:06:44;;;;;;;10.35;8.32;;;18.70;74.10;;;;;;5017743;28;20044;-76
2023/10/10 08:11:43;;;;;;;10.60;8.30;;;18.60;74.10;;;;;;5034086;28;20159;-76
2023/10/10 08:14:09;;;;;;;9.50;8.07;;;18.60;74.00;;;;;;5033755;28;20028;-76
2023/10/10 08:16:37;;;;;;;11.10;9.13;;;18.60;74.00;;;;;;5035090;28;20037;-76
2023/10/10 08:19:07;;;;;;;9.38;8.00;;;18.60;74.00;;;;;;5035609;28;20025;-76
2023/10/10 08:21:48;;;;;;;10.02;8.00;;;18.70;74.10;;;;;;5035174;28;20025;-76
2023/10/10 08:24:15;;;;;;;10.65;8.80;;;18.70;74.10;;;;;;5038375;28;20060;-76
2023/10/10 08:26:41;;;;;;;11.35;8.77;;;18.70;74.10;;;;;;5054039;28;20089;-76
2023/10/10 08:29:09;;;;;;;8.98;7.65;;;18.70;74.10;;;;;;5055205;28;20037;-75
2023/10/10 08:31:36;;;;;;;9.43;7.65;;;18.70;74.20;;;;;;5053779;28;20040;-76
2023/10/10 08:34:03;;;;;;;10.75;8.43;;;18.70;74.20;;;;;;5053947;28;20068;-75
2023/10/10 08:36:29;;;;;;;9.63;7.43;;;18.70;74.10;;;;;;5036870;28;20389;-76
2023/10/10 08:38:57;;;;;;;9.70;7.82;;;18.70;74.20;;;;;;5037165;28;20035;-76
2023/10/10 08:41:27;;;;;;;9.88;7.93;;;18.70;74.20;;;;;;5053216;28;20021;-75
2023/10/10 08:44:01;;;;;;;9.00;7.35;;;18.70;74.20;;;;;;5020560;28;20116;-76
2023/10/10 08:46:30;;;;;;;9.55;7.95;;;18.70;74.20;;;;;;5036612;28;20590;-76
2023/10/10 08:49:03;;;;;;;9.25;8.05;;;18.80;74.20;;;;;;5037181;28;20051;-76
2023/10/10 08:51:34;;;;;;;10.40;7.93;;;18.70;74.20;;;;;;5054142;28;20044;-76
2023/10/10 08:54:18;;;;;;;10.10;8.13;;;18.70;74.20;;;;;;5054477;28;20132;-76
2023/10/10 08:57:00;;;;;;;9.10;7.22;;;18.70;74.20;;;;;;5053309;28;20397;-76
2023/10/10 08:59:28;;;;;;;8.35;7.40;;;18.80;74.20;;;;;;5036594;28;20040;-75
2023/10/10 09:02:06;;;;;;;10.10;7.78;;;18.80;74.10;;;;;;5039075;28;20036;-75
2023/10/10 09:04:32;;;;;;;9.52;7.47;;;18.80;74.20;;;;;;5052893;28;20029;-75
2023/10/10 09:07:00;;;;;;;9.95;7.47;;;18.80;74.10;;;;;;5052065;28;20029;-75
2023/10/10 09:10:04;;;;;;;10.07;7.88;;;18.80;74.10;;;;;;5036360;28;20032;-75
2023/10/10 09:12:20;;;;;;;9.07;6.77;;;18.80;74.10;;;;;;5051124;28;20041;-75
2023/10/10 09:14:50;;;;;;;7.93;6.78;;;18.90;74.00;;;;;;5054114;28;20341;-75
2023/10/10 09:17:32;;;;;;;9.52;7.38;;;18.90;74.00;;;;;;5048062;28;20029;-75
2023/10/10 09:19:58;;;;;;;9.05;6.95;;;18.90;74.00;;;;;;5048390;28;20088;-75
2023/10/10 09:22:42;;;;;;;8.57;6.80;;;18.90;73.90;;;;;;5036169;28;20025;-75
2023/10/10 09:25:41;;;;;;;8.95;7.30;;;19.00;74.00;;;;;;5052720;28;20079;-76
2023/10/10 09:28:10;;;;;;;7.90;6.22;;;19.00;73.90;;;;;;5036392;28;20033;-75
2023/10/10 09:30:49;;;;;;;9.98;6.90;;;19.00;73.70;;;;;;5052609;28;20037;-75
2023/10/10 09:35:58;;;;;;;7.53;6.30;;;19.10;73.70;;;;;;5052657;28;20107;-76
2023/10/10 09:38:33;;;;;;;8.50;6.47;;;19.10;73.70;;;;;;5036876;28;20454;-75
2023/10/10 09:49:40;;;;;;;7.60;5.93;;;19.30;73.50;;;;;;5051997;28;20481;-75
2023/10/10 09:58:00;;;;;;;8.27;6.35;;;19.40;73.30;;;;;;5039890;28;20033;-75
2023/10/10 10:06:51;;;;;;;8.13;6.43;;;19.50;73.30;;;;;;5052095;28;20123;-75
2023/10/10 10:09:31;;;;;;;7.75;6.13;;;19.50;73.30;;;;;;5051758;28;20045;-75
2023/10/10 10:12:24;;;;;;;7.75;5.93;;;19.60;73.30;;;;;;5052068;28;20423;-76
2023/10/10 10:15:16;;;;;;;7.05;5.70;;;19.60;73.30;;;;;;5052778;28;20043;-75
2023/10/10 10:18:19;;;;;;;6.80;5.25;;;19.70;73.40;;;;;;5052766;28;20057;-75
2023/10/10 10:20:49;;;;;;;7.88;6.07;;;19.70;73.30;;;;;;5052860;28;20025;-75
2023/10/10 10:23:25;;;;;;;7.38;5.97;;;19.80;73.20;;;;;;5035705;28;20036;-76
2023/10/10 10:26:04;;;;;;;7.50;5.78;;;19.80;73.20;;;;;;5052765;28;20470;-75
2023/10/10 10:28:43;;;;;;;7.38;5.60;;;19.80;73.30;;;;;;5051489;28;20035;-76
2023/10/10 10:31:27;;;;;;;6.75;5.70;;;19.90;73.30;;;;;;5052614;28;20028;-75
2023/10/10 10:37:19;;;;;;;6.70;5.45;;;20.00;73.30;;;;;;5041250;28;20486;-75
2023/10/10 10:40:23;;;;;;;6.72;5.68;;;20.00;73.20;;;;;;5031446;28;20040;-75
2023/10/10 10:42:38;;;;;;;8.13;5.88;;;20.00;73.20;;;;;;5020193;28;20030;-75
2023/10/10 10:46:07;;;;;;;6.53;5.32;;;20.10;73.40;;;;;;5031340;28;20120;-75
2023/10/10 10:48:35;;;;;;;6.53;5.45;;;20.10;73.40;;;;;;5010417;28;20034;-76
2023/10/10 10:51:41;;;;;;;7.55;5.85;;;20.10;73.30;;;;;;4974716;28;20084;-76
2023/10/10 10:54:08;;;;;;;7.82;5.57;;;20.20;73.50;;;;;;5021796;28;20470;-75
2023/10/10 10:59:12;;;;;;;7.28;5.93;;;20.20;73.50;;;;;;5032133;28;20046;-76
2023/10/10 11:01:48;;;;;;;7.10;5.57;;;20.20;73.60;;;;;;5030982;28;20040;-75
2023/10/10 11:04:26;;;;;;;7.47;5.75;;;20.20;73.80;;;;;;5032574;28;20040;-75
2023/10/10 11:07:07;;;;;;;7.47;5.60;;;20.30;73.80;;;;;;5015682;28;20033;-75
2023/10/10 11:09:36;;;;;;;7.43;6.03;;;20.30;73.90;;;;;;5031986;28;20030;-76
2023/10/10 11:12:06;;;;;;;7.43;6.00;;;20.30;73.80;;;;;;5031838;28;20052;-76
2023/10/10 11:14:54;;;;;;;7.50;5.90;;;20.30;73.90;;;;;;5019806;28;20514;-75
2023/10/10 11:17:20;;;;;;;7.47;5.72;;;20.30;74.00;;;;;;5003423;28;20485;-76
2023/10/10 11:19:47;;;;;;;7.82;6.28;;;20.40;74.00;;;;;;5011125;28;20057;-75
2023/10/10 11:25:04;;;;;;;8.13;5.97;;;20.40;74.10;;;;;;5031056;28;20041;-77
2023/10/10 11:27:33;;;;;;;7.32;5.68;;;20.40;74.10;;;;;;5015102;28;20037;-75
2023/10/10 11:30:08;;;;;;;6.72;5.60;;;20.40;74.20;;;;;;5014241;28;20030;-76
2023/10/10 11:32:46;;;;;;;9.57;6.88;;;20.50;74.30;;;;;;5031608;28;20021;-75
2023/10/10 11:35:22;;;;;;;9.05;6.53;;;20.50;74.40;;;;;;5030949;28;20095;-75
2023/10/10 11:37:59;;;;;;;8.52;6.95;;;20.50;74.40;;;;;;5014412;28;20459;-76
2023/10/10 11:42:58;;;;;;;8.25;6.57;;;20.60;74.60;;;;;;5032187;28;20388;-75
2023/10/10 11:45:27;;;;;;;8.23;6.75;;;20.60;74.60;;;;;;5030523;28;20037;-75
2023/10/10 11:48:00;;;;;;;8.05;6.03;;;20.60;74.60;;;;;;5030649;28;20030;-76
2023/10/10 11:50:48;;;;;;;8.45;5.97;;;20.60;74.70;;;;;;5030554;28;20471;-76
2023/10/10 11:53:24;;;;;;;7.68;6.05;;;20.70;74.80;;;;;;5030792;28;20445;-75
2023/10/10 11:55:54;;;;;;;7.53;5.90;;;20.70;74.60;;;;;;5024279;28;20111;-76
2023/10/10 11:58:21;;;;;;;8.05;6.25;;;20.70;74.60;;;;;;5030675;28;20048;-76
2023/10/10 12:01:04;;;;;;;7.88;5.75;;;20.70;74.70;;;;;;5031714;28;20022;-75
2023/10/10 12:03:41;;;;;;;8.32;6.00;;;20.70;74.70;;;;;;5014466;28;20419;-75
2023/10/10 12:06:26;;;;;;;7.47;5.93;;;20.80;74.60;;;;;;5025402;28;20030;-75
2023/10/10 12:08:53;;;;;;;7.60;5.57;;;20.80;74.60;;;;;;5013882;28;20040;-75
2023/10/10 12:11:22;;;;;;;7.70;5.95;;;20.80;74.50;;;;;;5031405;28;20072;-75
2023/10/10 12:13:52;;;;;;;7.50;5.50;;;20.90;74.60;;;;;;5031338;28;20034;-75
2023/10/10 12:16:23;;;;;;;7.85;5.95;;;20.90;74.60;;;;;;5030494;28;20030;-75
2023/10/10 12:18:55;;;;;;;7.72;6.13;;;21.00;74.60;;;;;;5030905;28;20128;-76
2023/10/10 12:21:22;;;;;;;7.65;6.28;;;21.00;74.60;;;;;;5014757;28;20037;-76
2023/10/10 12:23:54;;;;;;;7.18;5.22;;;21.00;74.50;;;;;;5031359;28;20497;-75
2023/10/10 12:26:22;;;;;;;6.63;5.53;;;21.10;74.50;;;;;;5030334;28;20425;-75
2023/10/10 12:28:48;;;;;;;7.95;5.85;;;21.10;74.40;;;;;;5031072;28;20183;-76
2023/10/10 12:31:16;;;;;;;7.10;5.13;;;21.10;74.30;;;;;;5031285;28;20117;-75
2023/10/10 12:33:48;;;;;;;7.80;6.15;;;21.20;74.30;;;;;;5029839;28;20038;-75
2023/10/10 12:36:15;;;;;;;7.60;5.72;;;21.20;74.20;;;;;;5031404;28;20026;-75
2023/10/10 12:38:41;;;;;;;6.38;4.80;;;21.20;74.20;;;;;;5031007;28;20021;-75
2023/10/10 12:41:11;;;;;;;7.30;5.10;;;21.30;74.10;;;;;;5032723;28;20030;-76
2023/10/10 12:43:37;;;;;;;6.30;4.50;;;21.30;74.10;;;;;;5034733;28;20090;-76
2023/10/10 12:46:04;;;;;;;7.18;5.40;;;21.30;74.00;;;;;;5017088;28;20025;-75
2023/10/10 12:48:31;;;;;;;7.20;5.28;;;21.30;74.00;;;;;;5016712;28;20118;-75
2023/10/10 12:51:01;;;;;;;6.60;5.05;;;21.40;74.10;;;;;;5035065;28;20164;-75
2023/10/10 12:53:30;;;;;;;7.22;5.30;;;21.40;74.10;;;;;;5033443;28;20095;-77
2023/10/10 12:56:01;;;;;;;7.28;5.15;;;21.40;74.10;;;;;;5033013;28;20530;-76
2023/10/10 12:58:28;;;;;;;7.43;5.32;;;21.50;74.10;;;;;;5033120;28;20087;-78
2023/10/10 13:00:56;;;;;;;7.13;5.28;;;21.50;74.10;;;;;;5033223;28;20025;-76
2023/10/10 13:03:29;;;;;;;7.82;5.90;;;21.50;74.10;;;;;;5034480;28;20030;-76
2023/10/10 13:06:00;;;;;;;7.55;5.53;;;21.50;74.10;;;;;;5034598;28;20391;-75
2023/10/10 13:08:38;;;;;;;7.70;5.60;;;21.60;74.10;;;;;;5033151;28;20372;-75
2023/10/10 13:11:19;;;;;;;9.30;5.70;;;21.60;74.10;;;;;;5016824;28;20450;-75
2023/10/10 13:13:52;;;;;;;7.47;4.82;;;21.60;74.10;;;;;;5034440;28;20045;-75
2023/10/10 13:16:23;;;;;;;8.88;5.20;;;21.60;74.00;;;;;;5034470;28;20022;-76
2023/10/10 13:18:54;;;;;;;7.30;5.53;;;21.70;74.10;;;;;;5013623;28;20044;-75
2023/10/10 13:21:19;;;;;;;7.43;5.57;;;21.70;74.10;;;;;;5028223;28;20112;-75
2023/10/10 13:23:52;;;;;;;7.22;5.22;;;21.70;74.00;;;;;;5033740;28;20113;-75
2023/10/10 13:26:22;;;;;;;7.72;4.95;;;21.70;74.00;;;;;;5034375;28;20160;-76
2023/10/10 13:28:49;;;;;;;7.15;5.25;;;21.70;74.00;;;;;;5016178;28;20036;-75
2023/10/10 13:31:16;;;;;;;6.43;4.68;;;21.70;74.00;;;;;;5032766;28;20115;-76
2023/10/10 13:33:43;;;;;;;6.65;4.63;;;21.80;74.00;;;;;;5032334;28;20053;-76
2023/10/10 13:36:15;;;;;;;7.47;5.05;;;21.80;74.50;;;;;;5032893;28;20080;-76
2023/10/10 13:38:48;;;;;;;6.43;4.55;;;21.80;73.90;;;;;;5033395;28;20033;-75
2023/10/10 13:41:22;;;;;;;6.30;4.53;;;21.90;73.90;;;;;;5032799;28;20021;-76
2023/10/10 13:43:51;;;;;;;6.75;4.82;;;21.90;73.90;;;;;;5032512;28;20033;-75
2023/10/10 13:46:18;;;;;;;7.82;4.82;;;21.90;73.80;;;;;;5032539;28;20064;-75
2023/10/10 13:48:45;;;;;;;6.60;4.60;;;21.90;73.90;;;;;;5034034;28;20029;-75
2023/10/10 13:51:13;;;;;;;7.13;4.45;;;21.90;73.80;;;;;;5032830;28;20113;-75
2023/10/10 13:53:43;;;;;;;7.70;4.55;;;22.00;73.80;;;;;;5032062;28;20124;-75
2023/10/10 13:56:10;;;;;;;7.78;4.90;;;22.00;73.80;;;;;;5032416;28;20049;-75
2023/10/10 13:58:37;;;;;;;5.93;4.38;;;22.00;73.80;;;;;;5032137;28;20095;-75
2023/10/10 14:01:26;;;;;;;6.45;4.32;;;22.10;73.80;;;;;;5033339;28;20441;-75
2023/10/10 14:04:03;;;;;;;6.28;4.13;;;22.10;73.80;;;;;;5018743;28;20034;-75
2023/10/10 14:06:45;;;;;;;5.93;3.92;;;22.20;73.70;;;;;;5032208;28;20084;-75
2023/10/10 14:09:11;;;;;;;7.15;4.60;;;22.20;73.60;;;;;;5014742;28;20132;-75
2023/10/10 14:11:38;;;;;;;6.05;4.00;;;22.20;73.60;;;;;;5029775;28;20022;-75
2023/10/10 14:14:06;;;;;;;6.30;4.13;;;22.20;73.50;;;;;;5015888;28;20040;-75
2023/10/10 14:16:32;;;;;;;5.97;4.13;;;22.30;73.60;;;;;;5015509;28;20029;-75
2023/10/10 14:19:01;;;;;;;5.80;3.95;;;22.30;73.50;;;;;;5031908;28;20148;-75
2023/10/10 14:21:27;;;;;;;5.75;4.05;;;22.40;73.60;;;;;;5031700;28;20073;-76
2023/10/10 14:24:08;;;;;;;5.80;3.67;;;22.40;73.40;;;;;;5015292;28;20080;-76
2023/10/10 14:26:37;;;;;;;5.47;3.80;;;22.40;73.40;;;;;;5032675;28;20029;-74
2023/10/10 14:29:08;;;;;;;5.70;3.85;;;22.40;73.30;;;;;;5031597;28;20548;-75
2023/10/10 14:31:35;;;;;;;5.38;3.70;;;22.50;73.20;;;;;;5015135;28;20034;-76
2023/10/10 14:34:04;;;;;;;6.32;3.88;;;22.50;73.10;;;;;;5031529;28;20469;-76
2023/10/10 14:36:30;;;;;;;6.88;4.20;;;22.50;73.10;;;;;;5031514;28;20040;-76
2023/10/10 14:38:57;;;;;;;5.38;3.65;;;22.50;73.00;;;;;;5032993;28;20037;-75
2023/10/10 14:41:33;;;;;;;5.43;3.53;;;22.60;73.00;;;;;;5012028;28;20041;-75
2023/10/10 14:44:00;;;;;;;5.25;3.88;;;22.60;73.00;;;;;;5030049;28;20029;-76
2023/10/10 14:46:31;;;;;;;6.38;3.83;;;22.60;73.00;;;;;;5031311;28;20030;-75
2023/10/10 14:49:05;;;;;;;5.97;3.78;;;22.60;72.90;;;;;;5031732;28;20033;-75
2023/10/10 14:51:35;;;;;;;5.32;3.67;;;22.70;72.90;;;;;;5018383;28;20055;-76
2023/10/10 14:54:11;;;;;;;6.13;3.60;;;22.70;72.90;;;;;;5031013;28;20045;-77
2023/10/10 14:56:50;;;;;;;6.10;3.78;;;22.70;72.80;;;;;;5031379;28;20021;-79
2023/10/10 14:59:31;;;;;;;4.65;3.22;;;22.70;72.80;;;;;;5032457;28;20042;-77
2023/10/10 15:02:01;;;;;;;6.13;3.67;;;22.80;72.80;;;;;;5031202;28;20069;-77
2023/10/10 15:04:30;;;;;;;4.68;3.33;;;22.80;72.70;;;;;;5030165;28;20024;-78
2023/10/10 15:06:57;;;;;;;5.50;3.67;;;22.80;72.70;;;;;;5031663;28;20025;-77
2023/10/10 15:09:24;;;;;;;5.43;3.17;;;22.80;72.70;;;;;;5014251;28;20435;-78
2023/10/10 15:11:52;;;;;;;5.25;3.47;;;22.80;72.60;;;;;;5030718;28;20124;-77
2023/10/10 15:14:21;;;;;;;5.43;3.53;;;22.90;72.60;;;;;;5032060;28;20029;-82
2023/10/10 15:16:47;;;;;;;6.05;3.38;;;22.90;72.60;;;;;;5030500;28;20044;-77
2023/10/10 15:19:13;;;;;;;5.47;3.60;;;22.90;72.50;;;;;;5030655;28;20057;-77
2023/10/10 15:21:40;;;;;;;5.10;3.33;;;22.90;72.40;;;;;;5012139;28;20439;-78
2023/10/10 15:24:11;;;;;;;4.65;3.22;;;23.00;72.40;;;;;;5028772;28;20390;-76
2023/10/10 15:26:48;;;;;;;5.25;3.20;;;23.00;72.40;;;;;;5030440;28;20045;-77
2023/10/10 15:29:18;;;;;;;5.20;3.15;;;23.00;72.40;;;;;;5014348;28;20386;-77
2023/10/10 15:31:45;;;;;;;4.30;3.00;;;23.00;72.30;;;;;;5024076;28;20153;-76
2023/10/10 15:34:12;;;;;;;5.15;3.20;;;23.10;72.30;;;;;;5029610;28;20025;-76
2023/10/10 15:36:38;;;;;;;4.55;2.80;;;23.00;72.30;;;;;;5011803;28;20041;-78
2023/10/10 15:39:09;;;;;;;5.07;3.10;;;23.10;72.30;;;;;;5030809;28;20017;-76
2023/10/10 15:41:37;;;;;;;3.88;2.60;;;23.10;72.30;;;;;;5030527;28;20022;-76
2023/10/10 15:44:04;;;;;;;4.28;2.92;;;23.10;72.30;;;;;;5013629;28;20030;-76
2023/10/10 15:46:32;;;;;;;4.82;3.15;;;23.10;72.30;;;;;;5033893;28;20033;-77
2023/10/10 15:48:59;;;;;;;4.85;3.00;;;23.10;72.30;;;;;;5030779;28;20034;-77
2023/10/10 15:51:25;;;;;;;3.78;2.53;;;23.20;72.30;;;;;;4997347;28;20389;-77
2023/10/10 15:53:53;;;;;;;3.35;2.53;;;23.10;72.20;;;;;;5028808;28;20119;-78
2023/10/10 15:56:26;;;;;;;4.63;2.92;;;23.10;72.10;;;;;;5030013;28;20042;-76
2023/10/10 15:58:53;;;;;;;4.30;2.78;;;23.20;72.20;;;;;;5028835;28;20118;-77
2023/10/10 16:01:30;;;;;;;4.82;2.85;;;23.20;72.10;;;;;;5028684;28;20030;-76
2023/10/10 16:04:00;;;;;;;4.28;2.90;;;23.20;72.10;;;;;;5030182;28;20029;-76
2023/10/10 16:06:27;;;;;;;3.90;2.50;;;23.20;72.10;;;;;;5028507;28;20533;-76
2023/10/10 16:08:57;;;;;;;4.22;2.53;;;23.20;72.10;;;;;;5029417;28;20509;-78
2023/10/10 16:11:31;;;;;;;3.95;2.70;;;23.20;72.10;;;;;;5027597;28;20029;-77
2023/10/10 16:13:58;;;;;;;4.32;2.55;;;23.20;72.00;;;;;;5028285;28;20040;-76